createdAt,value
2023-01-17T00:03:03.253Z,81.99
2023-01-17T00:06:24.135Z,82.00
2023-01-17T00:09:44.486Z,81.73
2023-01-17T00:12:55.553Z,80.95
2023-01-17T00:15:58.178Z,80.98
2023-01-17T00:19:19.795Z,80.61
2023-01-17T00:22:37.992Z,80.97
2023-01-17T00:26:01.221Z,80.93
2023-01-17T00:29:03.572Z,80.95
2023-01-17T00:32:05.401Z,80.67
2023-01-17T00:35:11.900Z,80.85
2023-01-17T00:38:16.554Z,80.88
2023-01-17T00:41:20.372Z,80.64
2023-01-17T00:44:46.717Z,80.03
2023-01-17T00:48:06.808Z,80.21
2023-01-17T00:51:28.141Z,80.23
2023-01-17T00:54:48.389Z,80.26
2023-01-17T00:58:09.824Z,80.57
2023-01-17T01:01:30.355Z,79.77
2023-01-17T01:04:53.621Z,79.77
2023-01-17T01:08:15.483Z,79.54
2023-01-17T01:11:38.460Z,79.00
2023-01-17T01:15:04.679Z,78.82
2023-01-17T01:18:31.121Z,79.07
2023-01-17T01:21:51.761Z,78.24
2023-01-17T01:25:13.408Z,78.53
2023-01-17T01:28:33.525Z,78.29
2023-01-17T01:31:56.523Z,77.48
2023-01-17T01:34:59.141Z,77.28
2023-01-17T01:38:03.288Z,77.01
2023-01-17T01:41:07.686Z,77.00
2023-01-17T01:44:43.635Z,76.59
2023-01-17T01:47:47.684Z,75.72
2023-01-17T01:50:53.860Z,75.65
2023-01-17T01:54:01.526Z,75.42
2023-01-17T01:57:09.844Z,75.88
2023-01-17T02:00:17.859Z,75.44
2023-01-17T02:03:24.127Z,75.38
2023-01-17T02:06:31.375Z,75.29
2023-01-17T02:09:34.045Z,74.24
2023-01-17T02:12:38.600Z,74.77
2023-01-17T02:15:50.325Z,74.88
2023-01-17T02:19:01.076Z,75.10
2023-01-17T02:22:28.605Z,75.14
2023-01-17T02:26:19.374Z,74.80
2023-01-17T02:30:04.378Z,74.88
2023-01-17T02:33:23.478Z,75.13
2023-01-17T02:36:39.493Z,75.15
2023-01-17T02:39:49.725Z,75.25
2023-01-17T02:42:59.321Z,75.09
2023-01-17T02:46:02.174Z,74.78
2023-01-17T02:49:06.220Z,74.55
2023-01-17T02:52:37.557Z,74.47
2023-01-17T02:55:52.391Z,74.37
2023-01-17T02:59:08.717Z,74.91
2023-01-17T03:02:20.812Z,75.02
2023-01-17T03:05:33.344Z,75.21
2023-01-17T03:08:36.150Z,74.54
2023-01-17T03:11:38.913Z,74.75
2023-01-17T03:14:41.626Z,74.91
2023-01-17T03:17:50.271Z,74.36
2023-01-17T03:20:54.287Z,74.44
2023-01-17T03:23:57.012Z,74.66
2023-01-17T03:26:59.717Z,74.75
2023-01-17T03:30:03.433Z,74.90
2023-01-17T03:33:06.150Z,74.98
2023-01-17T03:36:13.264Z,74.58
2023-01-17T03:39:15.917Z,75.39
2023-01-17T03:42:18.714Z,75.45
2023-01-17T03:45:21.394Z,75.45
2023-01-17T03:48:24.145Z,75.50
2023-01-17T03:51:28.197Z,75.62
2023-01-17T03:54:30.913Z,75.91
2023-01-17T03:57:33.628Z,75.92
2023-01-17T04:00:36.854Z,75.69
2023-01-17T04:03:39.566Z,76.12
2023-01-17T04:06:43.671Z,76.32
2023-01-17T04:09:46.417Z,76.36
2023-01-17T04:12:49.327Z,77.00
2023-01-17T04:15:52.524Z,77.11
2023-01-17T04:18:55.383Z,77.64
2023-01-17T04:21:59.384Z,77.79
2023-01-17T04:25:08.932Z,77.58
2023-01-17T04:28:12.155Z,77.92
2023-01-17T04:31:16.795Z,78.01
2023-01-17T04:34:19.994Z,78.21
2023-01-17T04:37:26.926Z,78.21
2023-01-17T04:40:29.696Z,78.36
2023-01-17T04:43:43.344Z,78.89
2023-01-17T04:46:46.021Z,79.07
2023-01-17T04:49:48.747Z,79.24
2023-01-17T04:52:52.726Z,79.82
2023-01-17T04:55:55.534Z,80.11
2023-01-17T04:58:58.635Z,80.67
2023-01-17T05:02:01.305Z,80.94
2023-01-17T05:05:04.002Z,80.83
2023-01-17T05:08:07.983Z,81.53
2023-01-17T05:11:10.631Z,81.55
2023-01-17T05:14:13.350Z,81.72
2023-01-17T05:17:16.397Z,81.73
2023-01-17T05:20:19.400Z,82.04
2023-01-17T05:23:23.463Z,82.36
2023-01-17T05:26:26.552Z,82.18
2023-01-17T05:29:29.420Z,82.09
2023-01-17T05:32:32.162Z,82.04
2023-01-17T05:35:34.856Z,81.95
2023-01-17T05:38:39.017Z,82.30
2023-01-17T05:41:44.457Z,82.16
2023-01-17T05:44:47.744Z,82.24
2023-01-17T05:47:52.442Z,82.54
2023-01-17T05:50:55.127Z,82.56
2023-01-17T05:53:59.244Z,82.67
2023-01-17T05:57:02.012Z,82.58
2023-01-17T06:00:05.848Z,82.78
2023-01-17T06:03:08.635Z,82.76
2023-01-17T06:06:11.349Z,82.81
2023-01-17T06:09:15.405Z,82.98
2023-01-17T06:12:18.075Z,83.16
2023-01-17T06:15:20.909Z,83.56
2023-01-17T06:18:23.615Z,83.62
2023-01-17T06:21:26.432Z,84.16
2023-01-17T06:24:30.531Z,85.13
2023-01-17T06:27:33.348Z,85.51
2023-01-17T06:30:36.687Z,85.71
2023-01-17T06:33:39.346Z,86.16
2023-01-17T06:36:44.063Z,86.24
2023-01-17T06:39:48.981Z,86.38
2023-01-17T06:42:52.047Z,86.83
2023-01-17T06:45:56.158Z,87.20
2023-01-17T06:48:58.875Z,87.28
2023-01-17T06:52:02.009Z,87.69
2023-01-17T06:55:07.311Z,88.24
2023-01-17T06:58:10.843Z,88.12
2023-01-17T07:01:14.118Z,88.16
2023-01-17T07:04:17.521Z,88.05
2023-01-17T07:07:20.200Z,87.54
2023-01-17T07:10:24.427Z,87.07
2023-01-17T07:13:27.433Z,87.13
2023-01-17T07:16:30.328Z,87.00
2023-01-17T07:19:33.043Z,87.91
2023-01-17T07:22:37.640Z,88.49
2023-01-17T07:25:41.820Z,88.94
2023-01-17T07:28:44.792Z,89.37
2023-01-17T07:31:49.763Z,90.08
2023-01-17T07:34:52.441Z,90.36
2023-01-17T07:37:55.870Z,91.16
2023-01-17T07:41:00.712Z,92.41
2023-01-17T07:44:03.387Z,92.29
2023-01-17T07:47:06.036Z,92.58
2023-01-17T07:50:10.163Z,93.25
2023-01-17T07:53:12.854Z,93.19
2023-01-17T07:56:16.897Z,92.96
2023-01-17T07:59:19.709Z,92.63
2023-01-17T08:02:24.225Z,92.42
2023-01-17T08:05:27.572Z,91.81
2023-01-17T08:08:30.554Z,91.46
2023-01-17T08:11:34.594Z,91.11
2023-01-17T08:14:37.451Z,91.05
2023-01-17T08:17:40.299Z,90.62
2023-01-17T08:20:44.265Z,90.69
2023-01-17T08:23:48.939Z,90.69
2023-01-17T08:26:54.919Z,90.29
2023-01-17T08:29:57.739Z,90.24
2023-01-17T08:33:01.498Z,90.17
2023-01-17T08:36:04.484Z,90.11
2023-01-17T08:39:07.901Z,90.09
2023-01-17T08:42:11.944Z,90.09
2023-01-17T08:45:15.194Z,90.17
2023-01-17T08:48:20.895Z,90.26
2023-01-17T08:51:24.876Z,90.16
2023-01-17T08:54:28.853Z,90.05
2023-01-17T08:57:40.476Z,89.70
2023-01-17T09:00:43.587Z,89.98
2023-01-17T09:03:46.844Z,89.89
2023-01-17T09:06:57.129Z,89.71
2023-01-17T09:09:59.894Z,89.63
2023-01-17T09:13:07.069Z,89.50
2023-01-17T09:16:10.549Z,89.33
2023-01-17T09:19:13.553Z,89.06
2023-01-17T09:22:17.978Z,89.35
2023-01-17T09:25:23.646Z,89.38
2023-01-17T09:28:28.941Z,89.62
2023-01-17T09:31:40.415Z,89.68
2023-01-17T09:34:43.177Z,89.56
2023-01-17T09:37:46.076Z,89.37
2023-01-17T09:40:49.909Z,89.20
2023-01-17T09:44:09.965Z,89.01
2023-01-17T09:47:19.371Z,89.11
2023-01-17T09:50:32.145Z,88.77
2023-01-17T09:53:37.712Z,88.66
2023-01-17T09:56:47.666Z,88.79
2023-01-17T10:00:03.757Z,88.59
2023-01-17T10:03:42.977Z,89.08
2023-01-17T10:07:05.595Z,88.68
2023-01-17T10:10:34.350Z,88.21
2023-01-17T10:13:49.406Z,88.00
2023-01-17T10:17:06.297Z,87.22
2023-01-17T10:20:20.212Z,86.81
2023-01-17T10:23:45.336Z,85.92
2023-01-17T10:26:51.524Z,85.16
2023-01-17T10:29:54.401Z,84.24
2023-01-17T10:33:02.778Z,83.54
2023-01-17T10:36:20.587Z,82.79
2023-01-17T10:39:25.053Z,82.56
2023-01-17T10:42:35.111Z,80.47
2023-01-17T10:45:43.640Z,81.09
2023-01-17T10:48:50.498Z,81.15
2023-01-17T10:52:08.791Z,78.92
2023-01-17T10:55:32.763Z,78.78
2023-01-17T10:58:35.475Z,76.60
2023-01-17T11:01:38.263Z,77.09
2023-01-17T11:04:45.023Z,77.46
2023-01-17T11:07:58.648Z,77.52
2023-01-17T11:11:05.146Z,75.93
2023-01-17T11:14:17.524Z,76.42
2023-01-17T11:17:20.991Z,74.26
2023-01-17T11:20:34.252Z,73.40
2023-01-17T11:23:37.297Z,71.45
2023-01-17T11:26:49.363Z,70.85
2023-01-17T11:30:04.633Z,72.56
2023-01-17T11:33:34.207Z,71.77
2023-01-17T11:36:38.249Z,70.85
2023-01-17T11:39:44.446Z,69.37
2023-01-17T11:43:19.624Z,69.23
2023-01-17T11:46:22.788Z,67.94
2023-01-17T11:49:30.290Z,65.83
2023-01-17T11:52:39.116Z,64.02
2023-01-17T11:55:55.078Z,61.22
2023-01-17T11:59:29.674Z,60.98
2023-01-17T12:03:07.146Z,59.47
2023-01-17T12:06:20.396Z,59.78
2023-01-17T12:09:38.546Z,60.68
2023-01-17T12:13:09.312Z,62.32
2023-01-17T12:16:28.392Z,62.74
2023-01-17T12:19:54.506Z,61.60
2023-01-17T12:23:14.271Z,62.65
2023-01-17T12:26:28.525Z,62.58
2023-01-17T12:29:44.659Z,55.51
2023-01-17T12:33:07.084Z,61.00
2023-01-17T12:36:17.642Z,59.76
2023-01-17T12:39:26.099Z,59.88
2023-01-17T12:42:36.183Z,61.36
2023-01-17T12:45:44.008Z,59.07
2023-01-17T12:48:47.691Z,56.91
2023-01-17T12:51:54.497Z,57.47
2023-01-17T12:55:02.242Z,57.15
2023-01-17T12:58:11.787Z,58.29
2023-01-17T13:01:23.095Z,57.34
2023-01-17T13:04:30.765Z,55.27
2023-01-17T13:07:44.167Z,57.66
2023-01-17T13:10:51.163Z,58.64
2023-01-17T13:13:57.952Z,59.10
2023-01-17T13:17:03.695Z,57.65
2023-01-17T13:20:18.362Z,55.81
2023-01-17T13:23:30.813Z,55.54
2023-01-17T13:26:50.741Z,57.03
2023-01-17T13:30:08.628Z,57.35
2023-01-17T13:33:36.567Z,57.88
2023-01-17T13:36:52.532Z,57.39
2023-01-17T13:40:19.346Z,56.91
2023-01-17T13:43:26.768Z,56.74
2023-01-17T13:46:32.614Z,56.28
2023-01-17T13:49:44.641Z,57.24
2023-01-17T13:52:50.911Z,57.36
2023-01-17T13:55:59.852Z,56.75
2023-01-17T13:59:27.360Z,57.60
2023-01-17T14:02:39.172Z,58.26
2023-01-17T14:05:49.239Z,57.41
2023-01-17T14:08:52.105Z,54.90
2023-01-17T14:11:59.214Z,55.76
2023-01-17T14:15:03.207Z,56.36
2023-01-17T14:18:32.555Z,56.93
2023-01-17T14:21:36.808Z,57.30
2023-01-17T14:24:59.201Z,56.52
2023-01-17T14:28:04.413Z,57.70
2023-01-17T14:31:11.021Z,56.96
2023-01-17T14:34:22.744Z,56.30
2023-01-17T14:37:42.034Z,55.78
2023-01-17T14:40:53.576Z,54.14
2023-01-17T14:43:59.601Z,55.46
2023-01-17T14:47:03.033Z,55.61
2023-01-17T14:50:22.258Z,55.48
2023-01-17T14:53:28.198Z,55.96
2023-01-17T14:56:32.204Z,56.59
2023-01-17T14:59:34.905Z,56.07
2023-01-17T15:02:42.385Z,56.29
2023-01-17T15:05:50.548Z,56.68
2023-01-17T15:08:54.437Z,56.16
2023-01-17T15:11:58.383Z,56.35
2023-01-17T15:15:02.060Z,56.66
2023-01-17T15:18:27.754Z,57.15
2023-01-17T15:21:35.779Z,57.58
2023-01-17T15:24:44.481Z,58.79
2023-01-17T15:27:47.207Z,59.60
2023-01-17T15:31:05.901Z,59.68
2023-01-17T15:34:12.732Z,60.35
2023-01-17T15:37:30.515Z,60.98
2023-01-17T15:40:33.242Z,61.72
2023-01-17T15:43:36.118Z,62.44
2023-01-17T15:46:43.386Z,62.71
2023-01-17T15:49:52.042Z,63.03
2023-01-17T15:52:57.818Z,63.52
2023-01-17T15:56:01.255Z,64.13
2023-01-17T15:59:31.415Z,64.56
2023-01-17T16:02:38.775Z,65.01
2023-01-17T16:05:44.805Z,65.63
2023-01-17T16:08:53.944Z,66.18
2023-01-17T16:11:56.815Z,66.78
2023-01-17T16:15:11.722Z,67.30
2023-01-17T16:18:18.781Z,67.67
2023-01-17T16:21:24.734Z,68.17
2023-01-17T16:24:29.093Z,68.48
2023-01-17T16:27:31.797Z,68.89
2023-01-17T16:30:34.867Z,69.55
2023-01-17T16:33:37.564Z,69.74
2023-01-17T16:36:40.359Z,70.08
2023-01-17T16:39:44.450Z,70.31
2023-01-17T16:42:47.537Z,70.89
2023-01-17T16:45:54.046Z,71.18
2023-01-17T16:48:57.333Z,71.28
2023-01-17T16:52:00.209Z,71.53
2023-01-17T16:55:04.476Z,71.60
2023-01-17T16:58:07.165Z,72.13
2023-01-17T17:01:11.170Z,72.32
2023-01-17T17:04:13.968Z,72.32
2023-01-17T17:07:16.704Z,72.46
2023-01-17T17:10:25.060Z,73.00
2023-01-17T17:13:28.418Z,73.09
2023-01-17T17:16:32.815Z,73.47
2023-01-17T17:19:35.961Z,73.45
2023-01-17T17:22:38.768Z,73.62
2023-01-17T17:25:42.801Z,73.87
2023-01-17T17:28:45.781Z,73.82
2023-01-17T17:31:48.607Z,74.41
2023-01-17T17:34:51.639Z,74.25
2023-01-17T17:37:56.108Z,74.36
2023-01-17T17:41:07.469Z,74.56
2023-01-17T17:44:10.394Z,74.78
2023-01-17T17:47:13.795Z,75.00
2023-01-17T17:50:17.132Z,74.96
2023-01-17T17:53:21.745Z,75.44
2023-01-17T17:56:25.811Z,75.56
2023-01-17T17:59:29.871Z,75.76
2023-01-17T18:02:32.652Z,76.01
2023-01-17T18:05:35.359Z,75.98
2023-01-17T18:08:38.913Z,76.43
2023-01-17T18:11:44.317Z,76.51
2023-01-17T18:14:47.903Z,76.63
2023-01-17T18:17:50.864Z,76.77
2023-01-17T18:20:53.701Z,77.18
2023-01-17T18:23:59.772Z,77.25
2023-01-17T18:27:03.908Z,77.37
2023-01-17T18:30:08.047Z,77.61
2023-01-17T18:33:10.848Z,77.79
2023-01-17T18:36:14.936Z,77.79
2023-01-17T18:39:19.908Z,77.89
2023-01-17T18:42:24.611Z,78.17
2023-01-17T18:45:27.428Z,78.06
2023-01-17T18:48:30.173Z,78.30
2023-01-17T18:51:34.878Z,78.49
2023-01-17T18:54:37.618Z,78.60
2023-01-17T18:57:41.810Z,78.70
2023-01-17T19:00:44.518Z,78.76
2023-01-17T19:03:49.262Z,78.84
2023-01-17T19:06:51.996Z,78.96
2023-01-17T19:09:54.699Z,79.33
2023-01-17T19:12:58.745Z,79.39
2023-01-17T19:16:02.960Z,79.50
2023-01-17T19:19:08.004Z,79.66
2023-01-17T19:22:10.871Z,79.74
2023-01-17T19:25:13.787Z,80.12
2023-01-17T19:28:17.873Z,80.60
2023-01-17T19:31:23.581Z,80.68
2023-01-17T19:34:26.531Z,80.78
2023-01-17T19:37:29.637Z,80.94
2023-01-17T19:40:32.360Z,80.99
2023-01-17T19:43:36.710Z,81.03
2023-01-17T19:46:39.797Z,81.02
2023-01-17T19:49:44.397Z,81.19
2023-01-17T19:52:47.128Z,81.10
2023-01-17T19:55:49.906Z,81.37
2023-01-17T19:58:54.502Z,81.62
2023-01-17T20:01:57.362Z,81.56
2023-01-17T20:05:00.247Z,81.66
2023-01-17T20:08:03.730Z,81.98
2023-01-17T20:11:07.792Z,81.93
2023-01-17T20:14:15.222Z,82.01
2023-01-17T20:17:17.906Z,81.88
2023-01-17T20:20:22.740Z,82.05
2023-01-17T20:23:32.898Z,82.21
2023-01-17T20:26:36.388Z,82.22
2023-01-17T20:29:40.733Z,82.31
2023-01-17T20:32:43.390Z,82.09
2023-01-17T20:35:46.180Z,82.51
2023-01-17T20:38:49.338Z,82.44
2023-01-17T20:41:52.100Z,82.46
2023-01-17T20:44:56.185Z,82.49
2023-01-17T20:47:59.173Z,82.43
2023-01-17T20:51:06.377Z,82.61
2023-01-17T20:54:13.034Z,82.46
2023-01-17T20:57:15.773Z,82.65
2023-01-17T21:00:23.026Z,82.51
2023-01-17T21:03:28.753Z,82.59
2023-01-17T21:06:31.754Z,82.57
2023-01-17T21:09:34.499Z,82.85
2023-01-17T21:12:40.195Z,82.57
2023-01-17T21:15:46.592Z,82.70
2023-01-17T21:18:50.442Z,82.61
2023-01-17T21:21:53.146Z,82.58
2023-01-17T21:25:03.362Z,82.43
2023-01-17T21:28:09.636Z,82.17
2023-01-17T21:31:38.603Z,82.04
2023-01-17T21:35:03.994Z,81.99
2023-01-17T21:38:06.878Z,81.93
2023-01-17T21:41:09.798Z,82.00
2023-01-17T21:44:27.948Z,81.84
2023-01-17T21:47:32.797Z,81.93
2023-01-17T21:50:39.048Z,81.97
2023-01-17T21:53:44.686Z,81.91
2023-01-17T21:57:07.988Z,81.95
2023-01-17T22:00:14.681Z,81.88
2023-01-17T22:03:27.048Z,81.74
2023-01-17T22:06:35.282Z,81.82
2023-01-17T22:09:37.957Z,81.67
2023-01-17T22:12:40.669Z,81.70
2023-01-17T22:15:43.870Z,81.88
2023-01-17T22:18:48.465Z,81.84
2023-01-17T22:21:51.159Z,81.83
2023-01-17T22:24:53.836Z,81.80
2023-01-17T22:27:57.059Z,81.91
2023-01-17T22:31:06.511Z,81.88
2023-01-17T22:34:19.839Z,81.95
2023-01-17T22:37:24.779Z,81.91
2023-01-17T22:40:27.897Z,82.00
2023-01-17T22:43:30.521Z,82.01
2023-01-17T22:46:35.584Z,82.00
2023-01-17T22:49:39.722Z,81.86
2023-01-17T22:52:44.603Z,81.99
2023-01-17T22:55:47.235Z,81.93
2023-01-17T22:58:53.440Z,81.75
2023-01-17T23:01:59.583Z,81.69
2023-01-17T23:05:04.017Z,82.04
2023-01-17T23:08:08.823Z,81.79
2023-01-17T23:11:40.817Z,81.92
2023-01-17T23:15:02.029Z,81.89
2023-01-17T23:18:22.186Z,82.15
2023-01-17T23:21:58.372Z,81.91
2023-01-17T23:25:02.506Z,81.96
2023-01-17T23:28:23.151Z,81.71
2023-01-17T23:31:25.851Z,81.71
2023-01-17T23:34:31.530Z,81.87
2023-01-17T23:37:55.483Z,81.82
2023-01-17T23:41:20.662Z,81.74
2023-01-17T23:44:27.190Z,82.05
2023-01-17T23:47:29.846Z,81.89
2023-01-17T23:50:32.616Z,81.97
2023-01-17T23:53:37.803Z,81.94
2023-01-17T23:56:42.978Z,82.12
2023-01-17T23:59:48.757Z,82.08
